Time;durP1;ratioP1;P1;durP2;ratioP2;P2;SDS_P1;SDS_P2;PMS_P1;PMS_P2;Temp;Humidity;BMP_temperature;BMP_pressure;BME280_temperature;BME280_humidity;BME280_pressure;Samples;Min_cycle;Max_cycle;Signal;HPM_P1;HPM_P2
2022/11/23 05:30:45;;;;;;;;;6.00;6.00;;;;;8.54;80.06;99361.22;4994500;28;46474;-71
2022/11/23 05:33:10;;;;;;;;;6.00;6.00;;;;;8.55;79.74;99366.47;4945383;28;45379;-70
2022/11/23 05:35:36;;;;;;;;;6.00;6.00;;;;;8.63;79.56;99366.00;4957117;28;45453;-71
2022/11/23 05:38:01;;;;;;;;;4.00;4.00;;;;;8.50;80.70;99357.03;4956984;28;45326;-71
2022/11/23 05:40:29;;;;;;;;;8.25;6.25;;;;;8.57;80.77;99369.06;4956566;28;45406;-70
2022/11/23 05:42:55;;;;;;;;;6.50;6.50;;;;;8.51;80.65;99358.72;4957156;28;45397;-70
2022/11/23 05:45:21;;;;;;;;;9.00;7.00;;;;;8.55;81.31;99371.81;4957153;28;45294;-70
2022/11/23 05:47:54;;;;;;;;;7.50;4.75;;;;;8.60;81.07;99366.19;4957194;28;46489;-70
2022/11/23 05:50:21;;;;;;;;;7.25;6.00;;;;;8.66;80.57;99349.81;4939348;28;45511;-71
2022/11/23 05:52:46;;;;;;;;;10.00;4.25;;;;;8.68;80.66;99359.44;4957370;28;45219;-70
2022/11/23 05:55:12;;;;;;;;;7.50;6.50;;;;;8.73;80.78;99354.69;4956789;28;45347;-72
2022/11/23 05:57:37;;;;;;;;;6.25;4.00;;;;;8.66;81.36;99339.13;4957133;28;45366;-71
2022/11/23 06:00:04;;;;;;;;;7.00;7.00;;;;;8.72;80.51;99355.63;4956913;28;45267;-70
2022/11/23 06:02:30;;;;;;;;;6.75;6.75;;;;;8.66;81.06;99325.78;4957032;28;45605;-70
2022/11/23 06:04:55;;;;;;;;;5.00;5.00;;;;;8.82;80.51;99347.06;4958150;28;45385;-72
2022/11/23 06:07:20;;;;;;;;;4.00;4.00;;;;;8.79;80.35;99339.22;4958885;28;46259;-73
2022/11/23 06:09:46;;;;;;;;;6.00;6.00;;;;;8.83;80.64;99335.44;4957024;28;45424;-74
2022/11/23 06:12:11;;;;;;;;;4.75;2.00;;;;;8.92;80.51;99338.41;4957169;28;45453;-71
2022/11/23 06:14:36;;;;;;;;;8.25;6.00;;;;;9.00;80.38;99332.59;4957001;28;45319;-73
2022/11/23 06:17:02;;;;;;;;;7.75;7.00;;;;;8.89;79.91;99319.00;4939292;28;47750;-76
2022/11/23 06:19:28;;;;;;;;;5.50;4.00;;;;;9.04;80.20;99344.78;4956742;28;45465;-72
2022/11/23 06:21:56;;;;;;;;;9.50;8.25;;;;;9.05;79.96;99338.50;4957012;28;45294;-72
2022/11/23 06:24:21;;;;;;;;;7.50;4.50;;;;;9.05;79.42;99327.78;4956772;28;45515;-76
2022/11/23 06:26:47;;;;;;;;;9.00;8.75;;;;;9.14;79.63;99329.03;4956748;28;45273;-72
2022/11/23 06:29:13;;;;;;;;;9.75;5.00;;;;;9.21;79.41;99336.56;4939579;28;45572;-75
2022/11/23 06:31:39;;;;;;;;;7.00;6.50;;;;;9.24;79.39;99332.84;4965971;28;45393;-70
2022/11/23 06:34:04;;;;;;;;;7.00;6.25;;;;;9.24;78.85;99324.84;4976210;28;45386;-69
2022/11/23 06:36:29;;;;;;;;;13.50;7.00;;;;;9.21;79.21;99311.66;4975900;28;45337;-71
2022/11/23 06:38:55;;;;;;;;;8.00;5.50;;;;;9.28;78.48;99321.84;4975813;28;45456;-77
2022/11/23 06:41:20;;;;;;;;;5.00;5.00;;;;;9.33;78.21;99317.09;4976552;28;45469;-73
2022/11/23 06:43:46;;;;;;;;;9.00;5.75;;;;;9.31;78.34;99308.31;4975802;28;45504;-73
2022/11/23 06:46:11;;;;;;;;;3.00;3.00;;;;;9.31;78.46;99300.28;4975841;28;46245;-71
2022/11/23 06:48:37;;;;;;;;;7.50;5.25;;;;;9.34;78.41;99300.09;4976269;28;45310;-71
2022/11/23 06:51:02;;;;;;;;;13.50;7.00;;;;;9.37;78.02;99304.38;4977552;28;45521;-72
2022/11/23 06:53:28;;;;;;;;;3.25;3.25;;;;;8.91;77.94;99220.91;4976639;28;45474;-72
2022/11/23 06:55:58;;;;;;;;;3.00;3.00;;;;;9.41;78.04;99296.06;4976071;28;45527;-70
2022/11/23 06:58:26;;;;;;;;;6.00;4.25;;;;;9.31;77.67;99278.88;4975959;28;45580;-70
2022/11/23 07:00:51;;;;;;;;;8.00;6.00;;;;;9.44;77.75;99292.34;4964620;28;45431;-73
2022/11/23 07:03:19;;;;;;;;;3.00;3.00;;;;;9.39;77.64;99287.28;4975181;28;45378;-75
2022/11/23 07:05:45;;;;;;;;;3.75;3.75;;;;;9.35;77.92;99269.72;4957879;28;45699;-71
2022/11/23 07:08:10;;;;;;;;;9.00;5.00;;;;;9.39;77.74;99276.56;4975529;28;45255;-69
2022/11/23 07:10:35;;;;;;;;;3.00;3.00;;;;;9.34;77.48;99283.19;4975769;28;45329;-71
2022/11/23 07:13:05;;;;;;;;;4.00;4.00;;;;;9.39;77.00;99287.28;4975282;28;45461;-71
2022/11/23 07:15:30;;;;;;;;;5.00;5.00;;;;;9.35;77.23;99288.44;4975480;28;45408;-71
2022/11/23 07:17:55;;;;;;;;;4.50;4.00;;;;;9.31;77.10;99278.03;4975111;28;45464;-70
2022/11/23 07:20:21;;;;;;;;;7.00;3.00;;;;;9.43;76.91;99285.28;4975271;28;45491;-70
2022/11/23 07:22:46;;;;;;;;;3.50;3.50;;;;;9.43;76.57;99290.63;4975197;28;45412;-71
2022/11/23 07:25:17;;;;;;;;;5.00;4.25;;;;;9.42;76.75;99283.56;4975107;28;46216;-70
2022/11/23 07:27:42;;;;;;;;;5.50;3.50;;;;;9.31;76.64;99256.63;4972593;28;45495;-69
2022/11/23 07:30:10;;;;;;;;;4.75;3.25;;;;;9.49;76.78;99291.09;4945055;28;45711;-68
2022/11/23 07:32:36;;;;;;;;;6.50;6.50;;;;;9.51;76.13;99306.19;4969767;28;45606;-71
2022/11/23 07:35:01;;;;;;;;;6.50;4.00;;;;;9.35;75.99;99288.44;4972623;28;45964;-70
2022/11/23 07:37:26;;;;;;;;;4.25;4.00;;;;;9.44;75.73;99287.81;4972902;28;45583;-69
2022/11/23 07:39:52;;;;;;;;;4.75;4.00;;;;;9.49;75.82;99295.56;4972752;28;45576;-70
2022/11/23 07:42:18;;;;;;;;;4.00;4.00;;;;;9.48;75.70;99293.84;4972222;28;45455;-69
2022/11/23 07:44:44;;;;;;;;;4.25;4.00;;;;;9.43;75.76;99304.00;4973061;28;45588;-69
2022/11/23 07:47:09;;;;;;;;;3.00;3.00;;;;;9.33;75.43;99276.13;4974289;28;45317;-69
2022/11/23 07:49:35;;;;;;;;;7.00;3.00;;;;;9.45;76.05;99297.56;4974043;28;45474;-70
2022/11/23 07:52:00;;;;;;;;;6.25;3.75;;;;;9.45;76.20;99294.03;4974965;28;45457;-70
2022/11/23 07:54:25;;;;;;;;;6.00;5.25;;;;;9.46;76.87;99301.09;4974507;28;45358;-71
2022/11/23 07:56:51;;;;;;;;;3.50;3.50;;;;;9.40;76.46;99290.81;4974669;28;52154;-70
2022/11/23 07:59:16;;;;;;;;;4.00;4.00;;;;;9.44;76.17;99305.72;4975243;28;45484;-71
2022/11/23 08:01:41;;;;;;;;;2.75;2.25;;;;;9.38;76.23;99295.38;4974389;28;45505;-70
2022/11/23 08:04:07;;;;;;;;;3.50;3.00;;;;;9.33;76.64;99293.03;4977398;28;52462;-70
2022/11/23 08:06:32;;;;;;;;;4.00;4.00;;;;;9.29;76.95;99295.97;4977702;28;45242;-69
2022/11/23 08:08:59;;;;;;;;;6.50;4.25;;;;;9.23;77.53;99296.38;4978199;28;45399;-69
2022/11/23 08:11:24;;;;;;;;;3.50;3.50;;;;;9.20;78.19;99297.41;4977816;28;45433;-70
2022/11/23 08:13:49;;;;;;;;;6.50;3.00;;;;;9.15;78.30;99285.31;4978306;28;46163;-70
2022/11/23 08:16:15;;;;;;;;;4.50;3.75;;;;;9.20;78.51;99291.22;4978060;28;45452;-70
2022/11/23 08:18:40;;;;;;;;;4.00;4.00;;;;;9.13;78.30;99269.34;4978521;28;45392;-70
2022/11/23 08:21:07;;;;;;;;;4.50;4.00;;;;;9.26;78.16;99280.16;4977753;28;45268;-70
2022/11/23 08:23:33;;;;;;;;;3.00;3.00;;;;;9.24;78.55;99274.88;4977981;28;45451;-70
2022/11/23 08:25:58;;;;;;;;;3.75;3.00;;;;;9.22;77.93;99268.78;4977995;28;45409;-70
2022/11/23 08:28:23;;;;;;;;;8.25;4.00;;;;;9.27;78.06;99281.88;4976588;28;45560;-70
2022/11/23 08:30:50;;;;;;;;;6.00;6.00;;;;;9.30;77.92;99276.31;4977307;28;45583;-71
2022/11/23 08:33:16;;;;;;;;;4.00;4.00;;;;;9.32;77.83;99275.25;4977820;28;45311;-70
2022/11/23 08:35:42;;;;;;;;;4.75;4.75;;;;;9.28;77.57;99246.13;4960152;28;45671;-70
2022/11/23 08:38:09;;;;;;;;;2.50;2.50;;;;;9.40;77.57;99258.72;4978184;28;45263;-70
2022/11/23 08:40:35;;;;;;;;;4.50;3.50;;;;;9.45;77.31;99235.19;4977667;28;45409;-69
2022/11/23 08:43:00;;;;;;;;;3.00;3.00;;;;;9.46;77.25;99235.09;4977856;28;46144;-70
2022/11/23 08:45:26;;;;;;;;;3.00;3.00;;;;;9.53;76.86;99232.88;4977672;28;45361;-71
2022/11/23 08:47:52;;;;;;;;;3.25;3.25;;;;;9.56;76.72;99213.09;4977922;28;45424;-71
2022/11/23 08:50:19;;;;;;;;;3.00;3.00;;;;;9.59;76.56;99202.19;4959334;28;46282;-69
2022/11/23 08:52:44;;;;;;;;;3.00;3.00;;;;;9.57;76.37;99188.06;4977283;28;45516;-70
2022/11/23 08:55:10;;;;;;;;;2.00;2.00;;;;;9.47;76.05;99179.78;4960447;28;45354;-69
2022/11/23 08:57:35;;;;;;;;;7.00;4.25;;;;;9.63;76.23;99211.72;4978134;28;45449;-70
2022/11/23 09:00:02;;;;;;;;;3.00;2.00;;;;;9.63;76.13;99211.72;4977784;28;45283;-71
2022/11/23 09:02:28;;;;;;;;;2.00;2.00;;;;;9.68;76.18;99215.81;4977496;28;47304;-70
2022/11/23 09:04:53;;;;;;;;;6.75;3.00;;;;;9.73;76.26;99221.72;4977081;28;45364;-71
2022/11/23 09:07:19;;;;;;;;;3.00;3.00;;;;;9.57;76.33;99190.72;4977877;28;45155;-70
2022/11/23 09:09:44;;;;;;;;;2.00;2.00;;;;;9.70;76.78;99202.31;4974998;28;45401;-70
2022/11/23 09:12:09;;;;;;;;;2.50;2.50;;;;;9.69;76.07;99190.78;4975375;28;45435;-70
2022/11/23 09:14:34;;;;;;;;;2.50;2.50;;;;;9.67;77.04;99194.50;4975591;28;45389;-71
2022/11/23 09:17:00;;;;;;;;;3.25;3.25;;;;;9.59;77.04;99180.78;4959253;28;45385;-70
2022/11/23 09:19:27;;;;;;;;;2.25;2.00;;;;;9.59;77.20;99183.47;4977045;28;45476;-70
2022/11/23 09:21:53;;;;;;;;;2.50;2.00;;;;;9.62;77.29;99183.25;4976576;28;46584;-71
2022/11/23 09:24:18;;;;;;;;;3.00;3.00;;;;;9.64;77.99;99186.69;4976836;28;45383;-69
2022/11/23 09:26:44;;;;;;;;;3.50;2.00;;;;;9.69;77.83;99189.94;4959355;28;46938;-72
2022/11/23 09:29:09;;;;;;;;;2.00;2.00;;;;;9.71;77.58;99194.19;4976106;28;45697;-70
2022/11/23 09:31:35;;;;;;;;;4.75;3.00;;;;;9.65;78.20;99181.22;4975502;28;45357;-70
2022/11/23 09:34:00;;;;;;;;;2.00;2.00;;;;;9.64;78.30;99175.97;4959315;28;45811;-71
2022/11/23 09:36:26;;;;;;;;;2.00;2.00;;;;;9.67;78.27;99171.28;4977121;28;45315;-70
2022/11/23 09:38:51;;;;;;;;;2.00;2.00;;;;;9.71;78.05;99174.59;4976588;28;45478;-69
2022/11/23 09:41:38;;;;;;;;;3.50;3.50;;;;;9.75;78.47;99178.81;4976479;28;45219;-70
2022/11/23 09:44:15;;;;;;;;;2.75;2.00;;;;;9.77;78.92;99171.53;4975949;28;45382;-70
2022/11/23 09:46:56;;;;;;;;;2.00;2.00;;;;;9.72;78.41;99155.78;4958872;28;45303;-72
2022/11/23 09:49:32;;;;;;;;;4.75;2.25;;;;;9.78;78.90;99168.72;4976379;28;45558;-71
2022/11/23 09:51:59;;;;;;;;;2.25;2.25;;;;;9.77;78.96;99169.72;4976694;28;45290;-70
2022/11/23 09:54:32;;;;;;;;;2.00;2.00;;;;;9.73;79.24;99146.78;4976661;28;45368;-71
2022/11/23 09:56:58;;;;;;;;;3.00;3.00;;;;;9.75;79.41;99165.41;4976756;28;45421;-69
2022/11/23 09:59:40;;;;;;;;;2.00;2.00;;;;;9.69;79.47;99163.16;4975391;28;45491;-71
2022/11/23 10:02:19;;;;;;;;;3.00;1.00;;;;;9.66;80.00;99161.53;4975521;28;45383;-70
2022/11/23 10:04:44;;;;;;;;;2.00;2.00;;;;;9.53;80.34;99149.09;4957964;28;45419;-72
2022/11/23 10:07:16;;;;;;;;;3.00;1.50;;;;;9.57;80.31;99162.16;4976391;28;45405;-70
2022/11/23 10:10:07;;;;;;;;;3.00;3.00;;;;;9.52;80.20;99150.06;4976354;28;45286;-70
2022/11/23 10:12:49;;;;;;;;;1.00;1.00;;;;;9.52;81.16;99152.75;4967120;28;46162;-69
2022/11/23 10:15:23;;;;;;;;;3.00;1.00;;;;;9.48;81.31;99152.94;4976401;28;45349;-71
2022/11/23 10:18:04;;;;;;;;;2.75;2.00;;;;;9.53;81.51;99175.88;4976445;28;45319;-69
2022/11/23 10:20:48;;;;;;;;;2.00;2.00;;;;;9.50;82.11;99174.25;4976056;28;45362;-70
2022/11/23 10:23:39;;;;;;;;;4.00;2.00;;;;;9.36;82.74;99158.22;4975843;28;45445;-69
2022/11/23 10:26:13;;;;;;;;;3.50;2.00;;;;;9.37;82.63;99173.31;4971325;28;45544;-70
2022/11/23 10:28:38;;;;;;;;;6.00;3.50;;;;;9.40;82.72;99181.16;4976488;28;45363;-71
2022/11/23 10:31:11;;;;;;;;;2.00;2.00;;;;;9.34;82.95;99165.53;4975585;28;45171;-71
2022/11/23 10:33:46;;;;;;;;;3.75;2.00;;;;;9.25;83.90;99176.81;4976280;28;46084;-71
2022/11/23 10:36:12;;;;;;;;;2.00;2.00;;;;;9.26;83.78;99176.72;4975708;28;45316;-71
2022/11/23 10:38:38;;;;;;;;;2.75;2.75;;;;;9.30;83.83;99193.41;4958402;28;45342;-71
2022/11/23 10:41:09;;;;;;;;;3.00;1.75;;;;;9.29;83.69;99194.34;4958184;28;46239;-70
2022/11/23 10:43:51;;;;;;;;;4.00;3.00;;;;;9.35;83.65;99192.16;4975724;28;46844;-71
2022/11/23 10:46:25;;;;;;;;;1.50;1.50;;;;;9.34;84.24;99201.16;4976077;28;45348;-70
2022/11/23 10:48:51;;;;;;;;;3.00;3.00;;;;;9.38;83.61;99199.97;4975886;28;45393;-71
2022/11/23 10:51:28;;;;;;;;;1.25;1.25;;;;;9.42;84.09;99209.53;4975632;28;45458;-70
2022/11/23 10:54:00;;;;;;;;;2.25;2.25;;;;;9.36;83.49;99182.28;4975724;28;47001;-70
2022/11/23 10:56:26;;;;;;;;;2.00;2.00;;;;;9.43;84.32;99203.22;4958343;28;45507;-70
2022/11/23 10:58:51;;;;;;;;;5.00;3.00;;;;;9.49;84.19;99192.09;4975554;28;45627;-70
2022/11/23 11:01:23;;;;;;;;;3.75;2.75;;;;;9.60;84.20;99209.28;4958060;28;45445;-70
2022/11/23 11:03:53;;;;;;;;;2.50;2.50;;;;;9.71;84.17;99220.09;4975583;28;46303;-70
2022/11/23 11:06:29;;;;;;;;;2.25;2.25;;;;;9.81;83.68;99213.19;4975864;28;45550;-71
2022/11/23 11:09:01;;;;;;;;;3.75;3.50;;;;;9.91;83.54;99213.41;4976273;28;45381;-70
2022/11/23 11:11:30;;;;;;;;;3.00;3.00;;;;;9.90;83.88;99198.31;4975777;28;45359;-70
2022/11/23 11:14:05;;;;;;;;;4.50;3.25;;;;;9.94;83.96;99227.47;4976118;28;46410;-70
2022/11/23 11:16:35;;;;;;;;;4.00;4.00;;;;;9.98;83.78;99204.00;4975641;28;45301;-71
2022/11/23 11:19:19;;;;;;;;;3.00;3.00;;;;;10.07;84.23;99217.63;4975860;28;45397;-70
2022/11/23 11:21:45;;;;;;;;;3.75;3.75;;;;;10.12;84.18;99228.03;4974973;28;45551;-71
2022/11/23 11:24:18;;;;;;;;;3.50;3.00;;;;;9.98;84.91;99217.38;4975272;28;45261;-70
2022/11/23 11:27:05;;;;;;;;;3.00;3.00;;;;;10.20;85.38;99239.13;4975626;28;45387;-71
2022/11/23 11:29:38;;;;;;;;;1.00;1.00;;;;;10.10;85.03;99204.03;4972811;28;45382;-71
2022/11/23 11:32:16;;;;;;;;;1.75;1.75;;;;;10.37;84.99;99238.81;4975108;28;45320;-70
2022/11/23 11:34:57;;;;;;;;;3.75;2.25;;;;;10.45;85.16;99243.66;4974726;28;45483;-70
2022/11/23 11:37:43;;;;;;;;;3.00;3.00;;;;;10.38;84.54;99226.28;4957571;28;45576;-70
2022/11/23 11:40:20;;;;;;;;;4.00;2.75;;;;;10.62;85.62;99256.72;4975356;28;45266;-69
2022/11/23 11:43:03;;;;;;;;;3.00;3.00;;;;;10.75;84.96;99268.28;4974918;28;45409;-71
2022/11/23 11:45:33;;;;;;;;;3.50;3.50;;;;;10.87;85.06;99247.81;4974943;28;46664;-70
2022/11/23 11:48:11;;;;;;;;;3.00;3.00;;;;;11.08;84.61;99270.41;4975097;28;45456;-71
2022/11/23 11:51:01;;;;;;;;;2.50;2.50;;;;;11.05;84.06;99248.34;4956972;28;45308;-69
2022/11/23 11:53:32;;;;;;;;;2.00;2.00;;;;;11.14;83.28;99255.72;4974723;28;45567;-69
2022/11/23 11:56:02;;;;;;;;;5.00;5.00;;;;;11.36;83.61;99275.53;4975115;28;45262;-70
2022/11/23 11:58:29;;;;;;;;;1.50;1.00;;;;;11.52;82.79;99271.72;4974941;28;45503;-70
2022/11/23 12:01:07;;;;;;;;;2.75;2.00;;;;;11.63;82.33;99274.47;4975209;28;45279;-70
2022/11/23 12:03:50;;;;;;;;;1.50;1.50;;;;;11.75;81.84;99278.97;4974591;28;45490;-70
2022/11/23 12:06:41;;;;;;;;;1.00;1.00;;;;;11.86;80.98;99279.03;4974509;28;45292;-71
2022/11/23 12:09:07;;;;;;;;;3.00;3.00;;;;;11.97;81.36;99286.28;4974842;28;45501;-70
2022/11/23 12:11:33;;;;;;;;;1.00;1.00;;;;;11.96;80.85;99287.25;4974533;28;45504;-71
2022/11/23 12:14:02;;;;;;;;;2.00;2.00;;;;;11.97;80.87;99288.97;4974906;28;45532;-71
2022/11/23 12:16:57;;;;;;;;;3.75;2.00;;;;;11.94;81.20;99289.19;4974577;28;46564;-71
2022/11/23 12:19:31;;;;;;;;;3.50;3.50;;;;;12.09;81.22;99290.72;4956794;28;46409;-69
2022/11/23 12:22:26;;;;;;;;;2.00;2.00;;;;;12.18;80.92;99290.03;4974933;28;45440;-69
2022/11/23 12:25:27;;;;;;;;;4.75;3.50;;;;;12.25;80.19;99298.50;4974423;28;45302;-71
2022/11/23 12:28:04;;;;;;;;;1.75;1.75;;;;;12.30;81.10;99305.25;4974520;28;45362;-71
2022/11/23 12:30:41;;;;;;;;;1.75;1.75;;;;;12.33;80.00;99312.22;4974499;28;45289;-70
2022/11/23 12:33:56;;;;;;;;;1.00;1.00;;;;;12.32;80.06;99305.13;4961664;28;45197;-69
2022/11/23 12:36:45;;;;;;;;;2.00;2.00;;;;;12.40;79.32;99332.28;4968463;28;45324;-71
2022/11/23 12:39:42;;;;;;;;;1.75;1.75;;;;;12.44;78.47;99317.63;4963660;28;45583;-69
2022/11/23 12:42:24;;;;;;;;;5.00;2.00;;;;;12.35;77.76;99313.81;4974176;28;45420;-69
2022/11/23 12:45:16;;;;;;;;;2.25;2.25;;;;;12.57;77.93;99322.94;4974576;28;45453;-70
2022/11/23 12:48:10;;;;;;;;;1.75;1.75;;;;;12.58;75.80;99338.09;4974803;28;45263;-70
2022/11/23 12:50:42;;;;;;;;;1.00;1.00;;;;;12.60;76.31;99330.75;4977090;28;46206;-70
2022/11/23 12:53:36;;;;;;;;;0.00;0.00;;;;;12.72;74.65;99341.44;4959859;28;46027;-69
2022/11/23 12:56:29;;;;;;;;;2.25;1.00;;;;;12.79;73.90;99349.88;4977943;28;45361;-70
2022/11/23 12:58:58;;;;;;;;;1.00;1.00;;;;;12.85;74.70;99366.38;4977474;28;45435;-70
2022/11/23 13:01:31;;;;;;;;;4.00;2.00;;;;;12.76;73.42;99348.25;4977568;28;46264;-71
2022/11/23 13:04:27;;;;;;;;;3.00;1.75;;;;;12.98;73.08;99379.75;4959480;28;45421;-71
2022/11/23 13:07:31;;;;;;;;;4.50;4.25;;;;;13.02;73.16;99377.66;4977509;28;45520;-69
2022/11/23 13:10:05;;;;;;;;;1.00;1.00;;;;;13.15;73.08;99390.09;4966377;28;45335;-70
2022/11/23 13:13:10;;;;;;;;;2.50;2.00;;;;;13.29;72.03;99398.91;4976637;28;47376;-69
2022/11/23 13:15:54;;;;;;;;;2.75;2.75;;;;;13.44;71.91;99400.44;4961273;28;45400;-70
2022/11/23 13:18:32;;;;;;;;;1.00;1.00;;;;;13.55;69.57;99409.34;4979412;28;45649;-71
2022/11/23 13:21:16;;;;;;;;;0.00;0.00;;;;;13.57;70.80;99423.56;4977032;28;45439;-70
2022/11/23 13:23:42;;;;;;;;;5.00;1.75;;;;;13.57;68.58;99417.31;4977199;28;46510;-69
2022/11/23 13:26:27;;;;;;;;;2.00;0.75;;;;;13.55;65.91;99446.19;4959244;28;45385;-70
2022/11/23 13:28:56;;;;;;;;;0.50;0.00;;;;;13.46;66.46;99433.44;4977093;28;45322;-71
2022/11/23 13:31:25;;;;;;;;;1.00;1.00;;;;;13.66;66.75;99451.59;4976453;28;45425;-69
2022/11/23 13:34:01;;;;;;;;;1.75;1.00;;;;;13.70;65.34;99439.59;4976871;28;46193;-69
2022/11/23 13:36:29;;;;;;;;;0.50;0.25;;;;;13.79;65.33;99452.31;4976827;28;45440;-70
2022/11/23 13:39:04;;;;;;;;;2.00;1.00;;;;;13.82;64.19;99459.31;4976769;28;45380;-70
2022/11/23 13:41:59;;;;;;;;;1.00;1.00;;;;;13.88;64.93;99469.59;4976908;28;45310;-70
2022/11/23 13:44:28;;;;;;;;;1.75;0.50;;;;;13.90;64.17;99473.03;4950488;28;47182;-70
2022/11/23 13:47:01;;;;;;;;;2.00;0.50;;;;;13.93;64.62;99483.56;4976690;28;45441;-72
2022/11/23 13:49:48;;;;;;;;;0.25;0.25;;;;;13.89;63.45;99493.72;4976613;28;45279;-71
2022/11/23 13:52:20;;;;;;;;;2.25;1.00;;;;;13.95;64.65;99500.47;4976372;28;45338;-71
2022/11/23 13:55:10;;;;;;;;;2.00;0.25;;;;;13.88;61.97;99512.69;4976688;28;45244;-72
2022/11/23 13:57:37;;;;;;;;;5.75;1.50;;;;;13.78;62.06;99519.81;4976653;28;45402;-71
2022/11/23 14:00:40;;;;;;;;;2.00;0.75;;;;;13.76;61.60;99536.09;4975527;28;45428;-70
2022/11/23 14:03:43;;;;;;;;;1.75;1.00;;;;;13.69;60.46;99531.31;4958952;28;46928;-70
2022/11/23 14:06:46;;;;;;;;;1.00;1.00;;;;;13.69;60.70;99544.78;4976173;28;45276;-70
2022/11/23 14:09:23;;;;;;;;;2.00;2.00;;;;;13.66;60.77;99556.63;4976316;28;45213;-70
2022/11/23 14:11:59;;;;;;;;;3.50;1.00;;;;;13.39;58.32;99562.28;4976145;28;45368;-71
2022/11/23 14:14:43;;;;;;;;;1.50;0.00;;;;;13.23;58.88;99575.19;4976311;28;46019;-70
2022/11/23 14:17:29;;;;;;;;;3.00;2.00;;;;;13.13;59.65;99598.34;4976346;28;46125;-71
2022/11/23 14:20:07;;;;;;;;;3.50;1.00;;;;;13.08;60.25;99616.69;4975725;28;45335;-70
2022/11/23 14:22:40;;;;;;;;;3.00;2.00;;;;;12.94;60.90;99612.31;4976391;28;45298;-69
2022/11/23 14:25:36;;;;;;;;;0.25;0.25;;;;;12.92;61.07;99633.09;4976305;28;45382;-70
2022/11/23 14:28:01;;;;;;;;;2.00;0.00;;;;;12.83;61.69;99623.00;4975839;28;45727;-70
2022/11/23 14:30:46;;;;;;;;;2.00;0.75;;;;;12.83;62.54;99626.56;4965190;28;45453;-71
2022/11/23 14:33:24;;;;;;;;;1.25;0.25;;;;;12.74;61.91;99629.91;4964016;28;45530;-70
2022/11/23 14:36:17;;;;;;;;;2.00;1.00;;;;;12.65;62.12;99640.47;4975412;28;45415;-70
2022/11/23 14:39:10;;;;;;;;;2.00;1.00;;;;;12.54;62.38;99657.38;4975647;28;45288;-70
2022/11/23 14:41:36;;;;;;;;;0.00;0.00;;;;;12.44;62.64;99649.09;4958255;28;45321;-71
2022/11/23 14:44:04;;;;;;;;;1.75;1.00;;;;;12.43;63.00;99654.56;4975784;28;45350;-70
2022/11/23 14:46:29;;;;;;;;;1.50;0.00;;;;;12.44;63.35;99664.34;4975873;28;45515;-70
2022/11/23 14:49:11;;;;;;;;;0.00;0.00;;;;;12.49;63.80;99643.41;4958078;28;47723;-70
2022/11/23 14:51:42;;;;;;;;;2.00;1.00;;;;;12.79;63.14;99657.31;4976030;28;45336;-70
2022/11/23 14:54:10;;;;;;;;;0.00;0.00;;;;;12.98;62.03;99664.94;4975125;28;45270;-70
2022/11/23 14:56:45;;;;;;;;;0.75;0.00;;;;;13.07;61.90;99668.78;4975573;28;45599;-70
2022/11/23 14:59:16;;;;;;;;;2.00;1.00;;;;;13.08;62.12;99673.19;4975753;28;45411;-69
2022/11/23 15:01:49;;;;;;;;;0.25;0.25;;;;;13.05;62.27;99676.09;4975405;28;45625;-71
2022/11/23 15:04:35;;;;;;;;;0.00;0.00;;;;;12.89;62.87;99679.03;4972858;28;45434;-73
2022/11/23 15:07:22;;;;;;;;;0.50;0.50;;;;;12.78;63.03;99682.50;4973132;28;45531;-69
2022/11/23 15:10:03;;;;;;;;;1.00;0.00;;;;;12.71;63.39;99696.50;4971261;28;46017;-72
2022/11/23 15:12:42;;;;;;;;;0.50;0.00;;;;;12.61;63.84;99690.91;4971416;28;45495;-71
2022/11/23 15:15:24;;;;;;;;;1.00;1.00;;;;;12.64;63.85;99704.16;4954526;28;45428;-68
2022/11/23 15:17:53;;;;;;;;;4.25;1.25;;;;;12.66;64.58;99715.66;4972108;28;45432;-70
2022/11/23 15:20:20;;;;;;;;;2.25;0.00;;;;;12.53;64.32;99722.84;4972245;28;46069;-71
2022/11/23 15:22:45;;;;;;;;;1.75;1.75;;;;;12.54;64.66;99734.47;4971656;28;45881;-69
2022/11/23 15:25:15;;;;;;;;;2.00;0.00;;;;;12.48;64.78;99733.94;4973720;28;45581;-70
2022/11/23 15:27:41;;;;;;;;;1.50;1.50;;;;;12.43;65.37;99737.91;4971048;28;45227;-69
2022/11/23 15:30:21;;;;;;;;;1.00;1.00;;;;;12.36;65.87;99742.84;4971706;28;46537;-69
2022/11/23 15:33:00;;;;;;;;;1.25;1.25;;;;;12.33;66.03;99747.59;4961374;28;45550;-70
2022/11/23 15:35:38;;;;;;;;;4.00;1.00;;;;;12.30;65.87;99737.91;4975267;28;45298;-70
2022/11/23 15:38:09;;;;;;;;;1.00;1.00;;;;;12.33;66.49;99753.84;4975096;28;45333;-71
2022/11/23 15:40:36;;;;;;;;;2.00;1.00;;;;;12.27;66.70;99754.22;4974951;28;45325;-70
2022/11/23 15:43:02;;;;;;;;;0.50;0.50;;;;;12.25;67.11;99756.16;4975442;28;45268;-70
2022/11/23 15:45:57;;;;;;;;;2.00;2.00;;;;;12.22;67.04;99758.22;4975003;28;45361;-69
2022/11/23 15:48:34;;;;;;;;;2.25;2.00;;;;;12.25;67.26;99766.91;4961949;28;45633;-70
2022/11/23 15:51:07;;;;;;;;;3.00;1.00;;;;;12.23;67.18;99770.69;4974948;28;46236;-73
2022/11/23 15:53:46;;;;;;;;;1.00;1.00;;;;;12.23;67.06;99784.13;4974734;28;45468;-73
2022/11/23 15:56:33;;;;;;;;;2.00;2.00;;;;;12.19;67.04;99780.75;4975009;28;45322;-73
2022/11/23 15:59:02;;;;;;;;;3.00;2.00;;;;;12.14;67.07;99796.34;4974614;28;45683;-73
2022/11/23 16:01:28;;;;;;;;;3.75;2.25;;;;;12.15;66.99;99794.53;4974982;28;45433;-71
2022/11/23 16:04:06;;;;;;;;;3.00;3.00;;;;;12.07;66.80;99795.03;4937879;28;45363;-75
2022/11/23 16:06:36;;;;;;;;;1.00;1.00;;;;;12.06;66.73;99802.25;4969225;28;45425;-74
2022/11/23 16:09:02;;;;;;;;;2.00;2.00;;;;;12.03;66.57;99813.19;4974925;28;45260;-74
2022/11/23 16:11:35;;;;;;;;;4.50;2.25;;;;;12.04;66.91;99806.84;4971994;28;45481;-71
2022/11/23 16:14:19;;;;;;;;;2.25;2.00;;;;;12.01;66.42;99814.25;4969386;28;45508;-72
2022/11/23 16:16:59;;;;;;;;;3.00;2.00;;;;;11.94;66.91;99802.19;4966431;28;45816;-72
2022/11/23 16:19:29;;;;;;;;;4.25;1.75;;;;;12.00;66.63;99821.44;4973805;28;45366;-72
2022/11/23 16:22:06;;;;;;;;;2.50;2.00;;;;;11.93;66.03;99830.00;4973818;28;45424;-73
2022/11/23 16:24:34;;;;;;;;;3.50;2.00;;;;;11.92;66.33;99842.56;4959464;28;45611;-72
2022/11/23 16:27:00;;;;;;;;;3.75;2.25;;;;;11.89;66.02;99832.03;4977509;28;45419;-72
2022/11/23 16:29:31;;;;;;;;;2.50;2.50;;;;;11.95;65.82;99854.94;4977196;28;45631;-71
2022/11/23 16:31:59;;;;;;;;;3.75;2.50;;;;;11.84;65.31;99857.47;4977203;28;46418;-72
2022/11/23 16:34:26;;;;;;;;;4.00;2.00;;;;;11.89;65.46;99863.41;4977779;28;45424;-72
2022/11/23 16:36:52;;;;;;;;;3.00;2.00;;;;;11.87;65.12;99863.50;4978137;28;45541;-71
2022/11/23 16:39:18;;;;;;;;;5.75;2.75;;;;;11.89;65.20;99884.91;4977551;28;45569;-72
2022/11/23 16:41:43;;;;;;;;;4.50;2.75;;;;;11.87;64.75;99879.63;4978104;28;45508;-73
2022/11/23 16:44:09;;;;;;;;;2.00;2.00;;;;;11.87;64.64;99890.38;4943484;28;45464;-72
2022/11/23 16:46:34;;;;;;;;;2.25;2.25;;;;;11.71;65.22;99866.28;4958760;28;45282;-72
2022/11/23 16:49:00;;;;;;;;;3.00;2.75;;;;;11.84;65.09;99901.28;4958441;28;45384;-73
2022/11/23 16:51:25;;;;;;;;;1.50;1.50;;;;;11.79;65.44;99897.19;4958351;28;46122;-72
2022/11/23 16:53:53;;;;;;;;;3.75;3.00;;;;;11.81;65.04;99904.19;4957244;28;46168;-71
2022/11/23 16:56:21;;;;;;;;;2.75;1.50;;;;;11.79;64.85;99907.94;4978142;28;45424;-72
2022/11/23 16:58:47;;;;;;;;;4.50;2.00;;;;;11.76;65.30;99917.03;4979243;28;45395;-75
2022/11/23 17:01:25;;;;;;;;;3.50;3.50;;;;;11.70;65.12;99912.91;4980490;28;45399;-72
2022/11/23 17:03:51;;;;;;;;;4.50;3.00;;;;;11.77;65.56;99931.31;4979791;28;45254;-73
2022/11/23 17:06:17;;;;;;;;;2.50;2.00;;;;;11.74;65.41;99938.59;4980319;28;45338;-74
2022/11/23 17:08:45;;;;;;;;;2.75;2.00;;;;;11.76;65.26;99943.88;4979192;28;45465;-72
2022/11/23 17:11:20;;;;;;;;;3.75;3.00;;;;;11.75;65.20;99945.72;4976479;28;45468;-74
2022/11/23 17:13:48;;;;;;;;;2.50;2.00;;;;;11.72;65.37;99935.16;4964202;28;45458;-72
2022/11/23 17:16:19;;;;;;;;;4.50;2.75;;;;;11.81;64.89;99947.16;4977230;28;45371;-72
2022/11/23 17:18:44;;;;;;;;;4.25;3.00;;;;;11.71;65.05;99933.41;4977443;28;45251;-73
2022/11/23 17:21:10;;;;;;;;;5.25;4.00;;;;;11.75;65.05;99948.41;4977245;28;45468;-73
2022/11/23 17:23:41;;;;;;;;;2.75;2.00;;;;;11.79;65.02;99957.13;4975971;28;45383;-73
2022/11/23 17:26:19;;;;;;;;;4.25;3.50;;;;;11.75;65.12;99952.91;4963035;28;45429;-75
2022/11/23 17:28:44;;;;;;;;;4.50;2.75;;;;;11.77;65.11;99959.03;4976732;28;45526;-73
2022/11/23 17:31:09;;;;;;;;;3.50;3.50;;;;;11.74;65.02;99968.16;4962931;28;46243;-74